sensor_id;sensor_type;location;lat;lon;timestamp;temperature;humidity
75466;HTU21D;64049;46.290;44.240;2023-11-18T00:01:25;1.97;87.14
75466;HTU21D;64049;46.290;44.240;2023-11-18T00:03:51;1.90;87.10
75466;HTU21D;64049;46.290;44.240;2023-11-18T00:06:17;1.85;87.16
75466;HTU21D;64049;46.290;44.240;2023-11-18T00:08:43;1.86;87.21
75466;HTU21D;64049;46.290;44.240;2023-11-18T00:11:09;1.86;87.25
75466;HTU21D;64049;46.290;44.240;2023-11-18T00:13:36;1.86;87.20
75466;HTU21D;64049;46.290;44.240;2023-11-18T00:16:08;1.83;87.21
75466;HTU21D;64049;46.290;44.240;2023-11-18T00:18:40;1.84;87.23
75466;HTU21D;64049;46.290;44.240;2023-11-18T00:21:06;1.84;87.23
75466;HTU21D;64049;46.290;44.240;2023-11-18T00:23:33;1.80;87.19
75466;HTU21D;64049;46.290;44.240;2023-11-18T00:25:59;1.76;87.17
75466;HTU21D;64049;46.290;44.240;2023-11-18T00:28:25;1.71;87.18
75466;HTU21D;64049;46.290;44.240;2023-11-18T00:30:51;1.69;87.22
75466;HTU21D;64049;46.290;44.240;2023-11-18T00:33:17;1.65;87.29
75466;HTU21D;64049;46.290;44.240;2023-11-18T00:35:43;1.65;87.31
75466;HTU21D;64049;46.290;44.240;2023-11-18T00:38:11;1.65;87.33
75466;HTU21D;64049;46.290;44.240;2023-11-18T00:40:37;1.66;87.33
75466;HTU21D;64049;46.290;44.240;2023-11-18T00:43:03;1.67;87.40
75466;HTU21D;64049;46.290;44.240;2023-11-18T00:45:29;1.66;87.36
75466;HTU21D;64049;46.290;44.240;2023-11-18T00:47:57;1.62;87.38
75466;HTU21D;64049;46.290;44.240;2023-11-18T00:50:23;1.57;87.31
75466;HTU21D;64049;46.290;44.240;2023-11-18T00:52:49;1.53;87.36
75466;HTU21D;64049;46.290;44.240;2023-11-18T00:55:15;1.48;87.37
75466;HTU21D;64049;46.290;44.240;2023-11-18T00:57:44;1.43;87.41
75466;HTU21D;64049;46.290;44.240;2023-11-18T01:00:14;1.36;87.38
75466;HTU21D;64049;46.290;44.240;2023-11-18T01:02:42;1.27;87.39
75466;HTU21D;64049;46.290;44.240;2023-11-18T01:05:09;1.21;87.50
75466;HTU21D;64049;46.290;44.240;2023-11-18T01:07:40;1.14;87.56
75466;HTU21D;64049;46.290;44.240;2023-11-18T01:10:07;1.13;87.57
75466;HTU21D;64049;46.290;44.240;2023-11-18T01:12:35;1.10;87.65
75466;HTU21D;64049;46.290;44.240;2023-11-18T01:15:01;1.08;87.68
75466;HTU21D;64049;46.290;44.240;2023-11-18T01:17:29;1.09;87.74
75466;HTU21D;64049;46.290;44.240;2023-11-18T01:19:55;1.07;87.73
75466;HTU21D;64049;46.290;44.240;2023-11-18T01:22:21;1.06;87.72
75466;HTU21D;64049;46.290;44.240;2023-11-18T01:24:47;1.04;87.70
75466;HTU21D;64049;46.290;44.240;2023-11-18T01:27:13;1.03;87.78
75466;HTU21D;64049;46.290;44.240;2023-11-18T01:29:39;1.01;87.71
75466;HTU21D;64049;46.290;44.240;2023-11-18T01:32:06;0.99;87.75
75466;HTU21D;64049;46.290;44.240;2023-11-18T01:34:38;0.98;87.77
75466;HTU21D;64049;46.290;44.240;2023-11-18T01:37:08;0.99;87.76
75466;HTU21D;64049;46.290;44.240;2023-11-18T01:39:35;0.99;87.74
75466;HTU21D;64049;46.290;44.240;2023-11-18T01:42:02;1.01;87.77
75466;HTU21D;64049;46.290;44.240;2023-11-18T01:44:29;1.02;87.78
75466;HTU21D;64049;46.290;44.240;2023-11-18T01:46:56;1.04;87.80
75466;HTU21D;64049;46.290;44.240;2023-11-18T01:49:22;1.07;87.83
75466;HTU21D;64049;46.290;44.240;2023-11-18T01:51:50;1.10;87.83
75466;HTU21D;64049;46.290;44.240;2023-11-18T01:54:22;1.13;87.77
75466;HTU21D;64049;46.290;44.240;2023-11-18T01:56:51;1.14;87.79
75466;HTU21D;64049;46.290;44.240;2023-11-18T01:59:20;1.17;87.77
75466;HTU21D;64049;46.290;44.240;2023-11-18T02:01:50;1.20;87.78
75466;HTU21D;64049;46.290;44.240;2023-11-18T02:04:19;1.20;87.74
75466;HTU21D;64049;46.290;44.240;2023-11-18T02:06:47;1.21;87.72
75466;HTU21D;64049;46.290;44.240;2023-11-18T02:09:20;1.22;87.73
75466;HTU21D;64049;46.290;44.240;2023-11-18T02:14:27;1.32;87.73
75466;HTU21D;64049;46.290;44.240;2023-11-18T02:16:59;1.34;87.67
75466;HTU21D;64049;46.290;44.240;2023-11-18T02:19:26;1.38;87.67
75466;HTU21D;64049;46.290;44.240;2023-11-18T02:21:54;1.40;87.63
75466;HTU21D;64049;46.290;44.240;2023-11-18T02:24:31;1.42;87.66
75466;HTU21D;64049;46.290;44.240;2023-11-18T02:27:00;1.42;87.64
75466;HTU21D;64049;46.290;44.240;2023-11-18T02:29:29;1.43;87.59
75466;HTU21D;64049;46.290;44.240;2023-11-18T02:32:00;1.42;87.54
75466;HTU21D;64049;46.290;44.240;2023-11-18T02:34:30;1.42;87.54
75466;HTU21D;64049;46.290;44.240;2023-11-18T02:36:58;1.42;87.54
75466;HTU21D;64049;46.290;44.240;2023-11-18T02:39:35;1.42;87.59
75466;HTU21D;64049;46.290;44.240;2023-11-18T02:42:06;1.40;87.56
75466;HTU21D;64049;46.290;44.240;2023-11-18T02:44:35;1.40;87.54
75466;HTU21D;64049;46.290;44.240;2023-11-18T02:47:03;1.38;87.51
75466;HTU21D;64049;46.290;44.240;2023-11-18T02:49:31;1.34;87.52
75466;HTU21D;64049;46.290;44.240;2023-11-18T02:51:57;1.33;87.59
75466;HTU21D;64049;46.290;44.240;2023-11-18T02:54:23;1.34;87.59
75466;HTU21D;64049;46.290;44.240;2023-11-18T02:56:49;1.37;87.61
75466;HTU21D;64049;46.290;44.240;2023-11-18T02:59:18;1.39;87.61
75466;HTU21D;64049;46.290;44.240;2023-11-18T03:01:44;1.38;87.54
75466;HTU21D;64049;46.290;44.240;2023-11-18T03:04:10;1.39;87.54
75466;HTU21D;64049;46.290;44.240;2023-11-18T03:06:36;1.39;87.54
75466;HTU21D;64049;46.290;44.240;2023-11-18T03:09:03;1.40;87.57
75466;HTU21D;64049;46.290;44.240;2023-11-18T03:11:33;1.41;87.57
75466;HTU21D;64049;46.290;44.240;2023-11-18T03:13:59;1.45;87.57
75466;HTU21D;64049;46.290;44.240;2023-11-18T03:16:25;1.45;87.54
75466;HTU21D;64049;46.290;44.240;2023-11-18T03:18:51;1.46;87.59
75466;HTU21D;64049;46.290;44.240;2023-11-18T03:21:17;1.47;87.57
75466;HTU21D;64049;46.290;44.240;2023-11-18T03:23:46;1.47;87.61
75466;HTU21D;64049;46.290;44.240;2023-11-18T03:26:12;1.46;87.55
75466;HTU21D;64049;46.290;44.240;2023-11-18T03:28:38;1.43;87.60
75466;HTU21D;64049;46.290;44.240;2023-11-18T03:31:06;1.40;87.59
75466;HTU21D;64049;46.290;44.240;2023-11-18T03:33:32;1.38;87.64
75466;HTU21D;64049;46.290;44.240;2023-11-18T03:35:58;1.36;87.66
75466;HTU21D;64049;46.290;44.240;2023-11-18T03:38:25;1.36;87.70
75466;HTU21D;64049;46.290;44.240;2023-11-18T03:40:53;1.34;87.73
75466;HTU21D;64049;46.290;44.240;2023-11-18T03:43:19;1.34;87.70
75466;HTU21D;64049;46.290;44.240;2023-11-18T03:45:45;1.35;87.74
75466;HTU21D;64049;46.290;44.240;2023-11-18T03:48:11;1.37;87.77
75466;HTU21D;64049;46.290;44.240;2023-11-18T03:50:40;1.36;87.77
75466;HTU21D;64049;46.290;44.240;2023-11-18T03:53:06;1.36;87.81
75466;HTU21D;64049;46.290;44.240;2023-11-18T03:55:32;1.38;87.75
75466;HTU21D;64049;46.290;44.240;2023-11-18T03:57:59;1.39;87.83
75466;HTU21D;64049;46.290;44.240;2023-11-18T04:00:25;1.40;87.83
75466;HTU21D;64049;46.290;44.240;2023-11-18T04:02:56;1.41;87.81
75466;HTU21D;64049;46.290;44.240;2023-11-18T04:05:25;1.45;87.89
75466;HTU21D;64049;46.290;44.240;2023-11-18T04:07:51;1.46;87.90
75466;HTU21D;64049;46.290;44.240;2023-11-18T04:10:18;1.47;87.91
75466;HTU21D;64049;46.290;44.240;2023-11-18T04:12:45;1.48;87.89
75466;HTU21D;64049;46.290;44.240;2023-11-18T04:15:13;1.48;87.95
75466;HTU21D;64049;46.290;44.240;2023-11-18T04:17:39;1.51;87.89
75466;HTU21D;64049;46.290;44.240;2023-11-18T04:20:06;1.54;87.89
75466;HTU21D;64049;46.290;44.240;2023-11-18T04:22:43;1.56;87.92
75466;HTU21D;64049;46.290;44.240;2023-11-18T04:25:10;1.55;87.92
75466;HTU21D;64049;46.290;44.240;2023-11-18T04:27:37;1.56;87.96
75466;HTU21D;64049;46.290;44.240;2023-11-18T04:30:03;1.58;87.90
75466;HTU21D;64049;46.290;44.240;2023-11-18T04:32:29;1.63;87.92
75466;HTU21D;64049;46.290;44.240;2023-11-18T04:34:59;1.64;87.96
75466;HTU21D;64049;46.290;44.240;2023-11-18T04:37:35;1.65;87.93
75466;HTU21D;64049;46.290;44.240;2023-11-18T04:40:02;1.64;87.89
75466;HTU21D;64049;46.290;44.240;2023-11-18T04:42:28;1.65;87.89
75466;HTU21D;64049;46.290;44.240;2023-11-18T04:44:58;1.64;87.89
75466;HTU21D;64049;46.290;44.240;2023-11-18T04:47:24;1.66;87.95
75466;HTU21D;64049;46.290;44.240;2023-11-18T04:49:51;1.68;87.95
75466;HTU21D;64049;46.290;44.240;2023-11-18T04:52:17;1.68;87.96
75466;HTU21D;64049;46.290;44.240;2023-11-18T04:54:44;1.69;87.99
75466;HTU21D;64049;46.290;44.240;2023-11-18T04:57:10;1.72;87.97
75466;HTU21D;64049;46.290;44.240;2023-11-18T04:59:36;1.75;88.00
75466;HTU21D;64049;46.290;44.240;2023-11-18T05:02:01;1.80;88.01
75466;HTU21D;64049;46.290;44.240;2023-11-18T05:04:28;1.87;88.01
75466;HTU21D;64049;46.290;44.240;2023-11-18T05:06:54;1.93;87.99
75466;HTU21D;64049;46.290;44.240;2023-11-18T05:09:20;2.00;87.99
75466;HTU21D;64049;46.290;44.240;2023-11-18T05:11:46;2.08;87.97
75466;HTU21D;64049;46.290;44.240;2023-11-18T05:14:12;2.26;88.05
75466;HTU21D;64049;46.290;44.240;2023-11-18T05:16:38;2.44;87.94
75466;HTU21D;64049;46.290;44.240;2023-11-18T05:19:04;2.56;87.83
75466;HTU21D;64049;46.290;44.240;2023-11-18T05:21:30;2.62;87.80
75466;HTU21D;64049;46.290;44.240;2023-11-18T05:23:56;2.71;87.79
75466;HTU21D;64049;46.290;44.240;2023-11-18T05:26:22;2.81;87.69
75466;HTU21D;64049;46.290;44.240;2023-11-18T05:28:48;2.87;87.72
75466;HTU21D;64049;46.290;44.240;2023-11-18T05:31:16;2.93;87.64
75466;HTU21D;64049;46.290;44.240;2023-11-18T05:33:43;2.98;87.61
75466;HTU21D;64049;46.290;44.240;2023-11-18T05:36:09;3.01;87.64
75466;HTU21D;64049;46.290;44.240;2023-11-18T05:38:37;3.05;87.63
75466;HTU21D;64049;46.290;44.240;2023-11-18T05:41:03;3.10;87.67
75466;HTU21D;64049;46.290;44.240;2023-11-18T05:43:32;3.16;87.68
75466;HTU21D;64049;46.290;44.240;2023-11-18T05:46:16;3.30;87.77
75466;HTU21D;64049;46.290;44.240;2023-11-18T05:48:55;3.49;87.78
75466;HTU21D;64049;46.290;44.240;2023-11-18T05:51:27;3.65;87.69
75466;HTU21D;64049;46.290;44.240;2023-11-18T05:53:54;3.87;87.63
75466;HTU21D;64049;46.290;44.240;2023-11-18T05:56:21;4.10;87.54
75466;HTU21D;64049;46.290;44.240;2023-11-18T05:58:51;4.35;87.35
75466;HTU21D;64049;46.290;44.240;2023-11-18T06:01:18;4.58;87.15
75466;HTU21D;64049;46.290;44.240;2023-11-18T06:03:45;4.73;86.79
75466;HTU21D;64049;46.290;44.240;2023-11-18T06:06:12;4.88;86.60
75466;HTU21D;64049;46.290;44.240;2023-11-18T06:08:40;5.08;86.39
75466;HTU21D;64049;46.290;44.240;2023-11-18T06:11:10;5.26;86.16
75466;HTU21D;64049;46.290;44.240;2023-11-18T06:13:44;5.42;85.87
75466;HTU21D;64049;46.290;44.240;2023-11-18T06:16:22;5.43;85.19
75466;HTU21D;64049;46.290;44.240;2023-11-18T06:18:58;5.52;85.01
75466;HTU21D;64049;46.290;44.240;2023-11-18T06:21:26;5.60;84.59
75466;HTU21D;64049;46.290;44.240;2023-11-18T06:23:56;5.70;84.46
75466;HTU21D;64049;46.290;44.240;2023-11-18T06:26:23;5.70;84.31
75466;HTU21D;64049;46.290;44.240;2023-11-18T06:28:53;5.68;84.13
75466;HTU21D;64049;46.290;44.240;2023-11-18T06:31:20;5.81;84.06
75466;HTU21D;64049;46.290;44.240;2023-11-18T06:33:47;6.02;83.87
75466;HTU21D;64049;46.290;44.240;2023-11-18T06:38:39;6.11;83.07
75466;HTU21D;64049;46.290;44.240;2023-11-18T06:41:10;6.08;82.66
75466;HTU21D;64049;46.290;44.240;2023-11-18T06:43:41;6.10;82.20
75466;HTU21D;64049;46.290;44.240;2023-11-18T06:46:32;6.23;81.66
75466;HTU21D;64049;46.290;44.240;2023-11-18T06:49:00;6.36;80.81
75466;HTU21D;64049;46.290;44.240;2023-11-18T06:51:30;6.38;79.53
75466;HTU21D;64049;46.290;44.240;2023-11-18T06:53:58;6.51;79.17
75466;HTU21D;64049;46.290;44.240;2023-11-18T06:56:27;6.64;79.04
75466;HTU21D;64049;46.290;44.240;2023-11-18T06:58:54;6.86;78.92
75466;HTU21D;64049;46.290;44.240;2023-11-18T07:01:20;7.02;77.71
75466;HTU21D;64049;46.290;44.240;2023-11-18T07:03:47;7.18;77.20
75466;HTU21D;64049;46.290;44.240;2023-11-18T07:06:20;7.44;77.02
75466;HTU21D;64049;46.290;44.240;2023-11-18T07:08:51;7.56;76.54
75466;HTU21D;64049;46.290;44.240;2023-11-18T07:11:17;7.74;75.44
75466;HTU21D;64049;46.290;44.240;2023-11-18T07:13:45;7.90;75.49
75466;HTU21D;64049;46.290;44.240;2023-11-18T07:16:11;7.91;75.05
75466;HTU21D;64049;46.290;44.240;2023-11-18T07:18:38;7.88;73.29
75466;HTU21D;64049;46.290;44.240;2023-11-18T07:21:04;7.91;73.29
75466;HTU21D;64049;46.290;44.240;2023-11-18T07:23:31;7.90;72.47
75466;HTU21D;64049;46.290;44.240;2023-11-18T07:25:57;7.89;72.15
75466;HTU21D;64049;46.290;44.240;2023-11-18T07:28:23;7.85;71.94
75466;HTU21D;64049;46.290;44.240;2023-11-18T07:30:49;7.89;71.96
75466;HTU21D;64049;46.290;44.240;2023-11-18T07:33:18;7.91;71.41
75466;HTU21D;64049;46.290;44.240;2023-11-18T07:35:48;7.92;70.76
75466;HTU21D;64049;46.290;44.240;2023-11-18T07:38:14;7.98;71.02
75466;HTU21D;64049;46.290;44.240;2023-11-18T07:40:41;8.00;70.42
75466;HTU21D;64049;46.290;44.240;2023-11-18T07:43:14;8.06;70.58
75466;HTU21D;64049;46.290;44.240;2023-11-18T07:45:40;8.03;69.74
75466;HTU21D;64049;46.290;44.240;2023-11-18T07:48:11;8.04;69.34
75466;HTU21D;64049;46.290;44.240;2023-11-18T07:50:43;8.07;68.36
75466;HTU21D;64049;46.290;44.240;2023-11-18T07:53:13;8.12;67.33
75466;HTU21D;64049;46.290;44.240;2023-11-18T07:55:39;8.09;66.46
75466;HTU21D;64049;46.290;44.240;2023-11-18T07:58:06;8.12;66.18
75466;HTU21D;64049;46.290;44.240;2023-11-18T08:00:43;8.19;66.10
75466;HTU21D;64049;46.290;44.240;2023-11-18T08:03:10;8.24;64.01
75466;HTU21D;64049;46.290;44.240;2023-11-18T08:05:41;8.26;64.72
75466;HTU21D;64049;46.290;44.240;2023-11-18T08:08:09;8.30;64.79
75466;HTU21D;64049;46.290;44.240;2023-11-18T08:10:37;8.41;64.50
75466;HTU21D;64049;46.290;44.240;2023-11-18T08:13:04;8.55;63.66
75466;HTU21D;64049;46.290;44.240;2023-11-18T08:15:32;8.64;63.51
75466;HTU21D;64049;46.290;44.240;2023-11-18T08:17:58;8.75;64.18
75466;HTU21D;64049;46.290;44.240;2023-11-18T08:20:24;8.82;63.80
75466;HTU21D;64049;46.290;44.240;2023-11-18T08:22:51;8.83;61.92
75466;HTU21D;64049;46.290;44.240;2023-11-18T08:25:17;8.89;62.89
75466;HTU21D;64049;46.290;44.240;2023-11-18T08:27:43;8.89;63.11
75466;HTU21D;64049;46.290;44.240;2023-11-18T08:30:12;8.89;63.37
75466;HTU21D;64049;46.290;44.240;2023-11-18T08:32:39;8.91;62.60
75466;HTU21D;64049;46.290;44.240;2023-11-18T08:35:06;8.96;63.21
75466;HTU21D;64049;46.290;44.240;2023-11-18T08:37:38;9.02;62.05
75466;HTU21D;64049;46.290;44.240;2023-11-18T08:40:04;9.03;61.87
75466;HTU21D;64049;46.290;44.240;2023-11-18T08:42:50;9.14;62.18
75466;HTU21D;64049;46.290;44.240;2023-11-18T08:45:20;9.16;61.62
75466;HTU21D;64049;46.290;44.240;2023-11-18T08:48:04;9.27;61.34
75466;HTU21D;64049;46.290;44.240;2023-11-18T08:50:34;9.35;60.94
75466;HTU21D;64049;46.290;44.240;2023-11-18T08:53:00;9.23;60.71
75466;HTU21D;64049;46.290;44.240;2023-11-18T08:55:31;9.26;60.94
75466;HTU21D;64049;46.290;44.240;2023-11-18T08:58:16;9.35;60.40
75466;HTU21D;64049;46.290;44.240;2023-11-18T09:00:55;9.36;60.03
75466;HTU21D;64049;46.290;44.240;2023-11-18T09:03:23;9.44;60.73
75466;HTU21D;64049;46.290;44.240;2023-11-18T09:06:04;9.48;59.73
75466;HTU21D;64049;46.290;44.240;2023-11-18T09:08:44;9.46;59.20
75466;HTU21D;64049;46.290;44.240;2023-11-18T09:11:12;9.51;59.12
75466;HTU21D;64049;46.290;44.240;2023-11-18T09:13:46;9.57;59.02
75466;HTU21D;64049;46.290;44.240;2023-11-18T09:16:21;9.74;59.88
75466;HTU21D;64049;46.290;44.240;2023-11-18T09:18:48;9.93;59.00
75466;HTU21D;64049;46.290;44.240;2023-11-18T09:21:15;9.89;59.24
75466;HTU21D;64049;46.290;44.240;2023-11-18T09:23:42;9.88;59.95
75466;HTU21D;64049;46.290;44.240;2023-11-18T09:26:08;9.81;60.78
75466;HTU21D;64049;46.290;44.240;2023-11-18T09:28:37;9.68;61.23
75466;HTU21D;64049;46.290;44.240;2023-11-18T09:31:06;9.63;61.31
75466;HTU21D;64049;46.290;44.240;2023-11-18T09:33:38;9.78;61.50
75466;HTU21D;64049;46.290;44.240;2023-11-18T09:36:07;9.85;61.60
75466;HTU21D;64049;46.290;44.240;2023-11-18T09:38:33;9.86;61.44
75466;HTU21D;64049;46.290;44.240;2023-11-18T09:41:01;9.80;60.94
75466;HTU21D;64049;46.290;44.240;2023-11-18T09:43:39;9.60;61.81
75466;HTU21D;64049;46.290;44.240;2023-11-18T09:46:15;9.55;62.22
75466;HTU21D;64049;46.290;44.240;2023-11-18T09:48:46;9.36;62.66
75466;HTU21D;64049;46.290;44.240;2023-11-18T09:51:23;9.41;62.89
75466;HTU21D;64049;46.290;44.240;2023-11-18T09:53:50;9.53;62.88
75466;HTU21D;64049;46.290;44.240;2023-11-18T09:56:41;9.60;62.66
75466;HTU21D;64049;46.290;44.240;2023-11-18T09:59:16;9.65;62.47
75466;HTU21D;64049;46.290;44.240;2023-11-18T10:01:51;9.65;62.27
75466;HTU21D;64049;46.290;44.240;2023-11-18T10:04:20;9.71;62.28
75466;HTU21D;64049;46.290;44.240;2023-11-18T10:06:46;9.72;62.18
75466;HTU21D;64049;46.290;44.240;2023-11-18T10:09:27;9.80;62.19
75466;HTU21D;64049;46.290;44.240;2023-11-18T10:11:55;9.84;62.04
75466;HTU21D;64049;46.290;44.240;2023-11-18T10:14:41;9.81;61.78
75466;HTU21D;64049;46.290;44.240;2023-11-18T10:17:09;9.77;61.61
75466;HTU21D;64049;46.290;44.240;2023-11-18T10:19:54;9.67;61.41
75466;HTU21D;64049;46.290;44.240;2023-11-18T10:22:27;9.71;61.44
75466;HTU21D;64049;46.290;44.240;2023-11-18T10:24:54;9.74;61.61
75466;HTU21D;64049;46.290;44.240;2023-11-18T10:27:24;9.76;61.64
75466;HTU21D;64049;46.290;44.240;2023-11-18T10:29:57;9.78;61.10
75466;HTU21D;64049;46.290;44.240;2023-11-18T10:32:23;9.82;60.83
75466;HTU21D;64049;46.290;44.240;2023-11-18T10:34:59;9.89;61.08
75466;HTU21D;64049;46.290;44.240;2023-11-18T10:37:27;9.98;61.47
75466;HTU21D;64049;46.290;44.240;2023-11-18T10:39:56;10.05;60.96
75466;HTU21D;64049;46.290;44.240;2023-11-18T10:42:26;10.03;60.67
75466;HTU21D;64049;46.290;44.240;2023-11-18T10:44:57;10.10;61.25
75466;HTU21D;64049;46.290;44.240;2023-11-18T10:47:26;10.12;61.06
75466;HTU21D;64049;46.290;44.240;2023-11-18T10:49:54;10.19;61.26
75466;HTU21D;64049;46.290;44.240;2023-11-18T10:52:22;10.03;61.31
75466;HTU21D;64049;46.290;44.240;2023-11-18T10:54:55;9.83;62.01
75466;HTU21D;64049;46.290;44.240;2023-11-18T10:57:22;9.59;62.26
75466;HTU21D;64049;46.290;44.240;2023-11-18T11:00:05;9.32;62.40
75466;HTU21D;64049;46.290;44.240;2023-11-18T11:02:40;9.11;62.44
75466;HTU21D;64049;46.290;44.240;2023-11-18T11:05:10;9.00;62.61
75466;HTU21D;64049;46.290;44.240;2023-11-18T11:07:45;8.97;62.91
75466;HTU21D;64049;46.290;44.240;2023-11-18T11:10:11;9.04;62.92
75466;HTU21D;64049;46.290;44.240;2023-11-18T11:13:02;9.05;62.74
75466;HTU21D;64049;46.290;44.240;2023-11-18T11:15:32;9.18;62.51
75466;HTU21D;64049;46.290;44.240;2023-11-18T11:18:05;9.23;62.30
75466;HTU21D;64049;46.290;44.240;2023-11-18T11:20:42;9.33;62.28
75466;HTU21D;64049;46.290;44.240;2023-11-18T11:34:02;9.06;62.32
75466;HTU21D;64049;46.290;44.240;2023-11-18T11:36:37;8.87;62.90
75466;HTU21D;64049;46.290;44.240;2023-11-18T11:39:08;8.82;62.79
75466;HTU21D;64049;46.290;44.240;2023-11-18T11:41:44;8.85;63.11
75466;HTU21D;64049;46.290;44.240;2023-11-18T11:44:16;8.96;63.44
75466;HTU21D;64049;46.290;44.240;2023-11-18T11:46:48;9.04;63.80
75466;HTU21D;64049;46.290;44.240;2023-11-18T11:49:22;9.24;63.94
75466;HTU21D;64049;46.290;44.240;2023-11-18T11:52:19;9.47;64.01
75466;HTU21D;64049;46.290;44.240;2023-11-18T11:55:04;9.75;63.71
75466;HTU21D;64049;46.290;44.240;2023-11-18T11:57:39;9.81;63.75
75466;HTU21D;64049;46.290;44.240;2023-11-18T12:00:09;9.82;63.98
75466;HTU21D;64049;46.290;44.240;2023-11-18T12:02:51;9.81;64.16
75466;HTU21D;64049;46.290;44.240;2023-11-18T12:05:26;9.67;64.30
75466;HTU21D;64049;46.290;44.240;2023-11-18T12:07:52;9.47;64.80
75466;HTU21D;64049;46.290;44.240;2023-11-18T12:10:26;9.19;65.39
75466;HTU21D;64049;46.290;44.240;2023-11-18T12:13:11;8.98;65.78
75466;HTU21D;64049;46.290;44.240;2023-11-18T12:15:56;8.92;65.65
75466;HTU21D;64049;46.290;44.240;2023-11-18T12:18:30;9.06;65.31
75466;HTU21D;64049;46.290;44.240;2023-11-18T12:21:02;9.29;64.56
75466;HTU21D;64049;46.290;44.240;2023-11-18T12:23:29;9.56;63.73
75466;HTU21D;64049;46.290;44.240;2023-11-18T12:29:33;9.84;62.28
75466;HTU21D;64049;46.290;44.240;2023-11-18T12:32:01;9.55;63.11
75466;HTU21D;64049;46.290;44.240;2023-11-18T12:38:37;8.76;64.32
75466;HTU21D;64049;46.290;44.240;2023-11-18T12:43:07;8.03;66.17
75466;HTU21D;64049;46.290;44.240;2023-11-18T12:45:43;7.91;66.81
75466;HTU21D;64049;46.290;44.240;2023-11-18T12:48:14;8.29;66.18
75466;HTU21D;64049;46.290;44.240;2023-11-18T12:51:24;8.50;65.18
75466;HTU21D;64049;46.290;44.240;2023-11-18T12:53:53;8.18;65.50
75466;HTU21D;64049;46.290;44.240;2023-11-18T12:56:19;7.73;66.62
75466;HTU21D;64049;46.290;44.240;2023-11-18T12:58:46;7.39;67.62
75466;HTU21D;64049;46.290;44.240;2023-11-18T13:01:13;7.11;68.32
75466;HTU21D;64049;46.290;44.240;2023-11-18T13:03:43;6.90;68.83
75466;HTU21D;64049;46.290;44.240;2023-11-18T13:06:10;6.71;69.26
75466;HTU21D;64049;46.290;44.240;2023-11-18T13:08:42;6.53;69.61
75466;HTU21D;64049;46.290;44.240;2023-11-18T13:11:08;6.36;69.97
75466;HTU21D;64049;46.290;44.240;2023-11-18T13:13:42;6.22;70.43
75466;HTU21D;64049;46.290;44.240;2023-11-18T13:16:08;6.11;70.69
75466;HTU21D;64049;46.290;44.240;2023-11-18T13:18:48;5.98;70.78
75466;HTU21D;64049;46.290;44.240;2023-11-18T13:21:19;5.84;71.08
75466;HTU21D;64049;46.290;44.240;2023-11-18T13:23:47;5.74;71.44
75466;HTU21D;64049;46.290;44.240;2023-11-18T13:26:19;5.62;71.71
75466;HTU21D;64049;46.290;44.240;2023-11-18T13:28:48;5.49;71.83
75466;HTU21D;64049;46.290;44.240;2023-11-18T13:31:16;5.36;72.13
75466;HTU21D;64049;46.290;44.240;2023-11-18T13:33:43;5.27;72.47
75466;HTU21D;64049;46.290;44.240;2023-11-18T13:36:09;5.15;72.45
75466;HTU21D;64049;46.290;44.240;2023-11-18T13:38:39;4.98;72.63
75466;HTU21D;64049;46.290;44.240;2023-11-18T13:41:07;4.88;72.75
75466;HTU21D;64049;46.290;44.240;2023-11-18T13:43:46;4.87;73.51
75466;HTU21D;64049;46.290;44.240;2023-11-18T13:46:18;4.81;73.35
75466;HTU21D;64049;46.290;44.240;2023-11-18T13:48:47;4.74;73.29
75466;HTU21D;64049;46.290;44.240;2023-11-18T13:51:15;4.63;73.36
75466;HTU21D;64049;46.290;44.240;2023-11-18T13:53:43;4.59;73.62
75466;HTU21D;64049;46.290;44.240;2023-11-18T13:56:13;4.51;73.62
75466;HTU21D;64049;46.290;44.240;2023-11-18T13:58:39;4.49;74.03
75466;HTU21D;64049;46.290;44.240;2023-11-18T14:01:06;4.45;73.96
75466;HTU21D;64049;46.290;44.240;2023-11-18T14:03:34;4.38;74.21
75466;HTU21D;64049;46.290;44.240;2023-11-18T14:06:06;4.36;74.60
75466;HTU21D;64049;46.290;44.240;2023-11-18T14:08:32;4.33;74.64
75466;HTU21D;64049;46.290;44.240;2023-11-18T14:11:00;4.23;74.57
75466;HTU21D;64049;46.290;44.240;2023-11-18T14:13:26;4.18;74.63
75466;HTU21D;64049;46.290;44.240;2023-11-18T14:15:58;4.09;74.73
75466;HTU21D;64049;46.290;44.240;2023-11-18T14:18:25;4.01;74.71
75466;HTU21D;64049;46.290;44.240;2023-11-18T14:20:52;3.93;74.80
75466;HTU21D;64049;46.290;44.240;2023-11-18T14:23:18;3.91;74.90
75466;HTU21D;64049;46.290;44.240;2023-11-18T14:25:44;3.84;74.84
75466;HTU21D;64049;46.290;44.240;2023-11-18T14:28:11;3.79;74.99
75466;HTU21D;64049;46.290;44.240;2023-11-18T14:30:38;3.75;74.97
75466;HTU21D;64049;46.290;44.240;2023-11-18T14:33:04;3.71;75.02
75466;HTU21D;64049;46.290;44.240;2023-11-18T14:35:30;3.70;75.00
75466;HTU21D;64049;46.290;44.240;2023-11-18T14:37:56;3.73;74.95
75466;HTU21D;64049;46.290;44.240;2023-11-18T14:40:22;3.80;74.86
75466;HTU21D;64049;46.290;44.240;2023-11-18T14:42:49;3.92;74.66
75466;HTU21D;64049;46.290;44.240;2023-11-18T14:45:16;4.01;74.42
75466;HTU21D;64049;46.290;44.240;2023-11-18T14:47:43;4.05;74.31
75466;HTU21D;64049;46.290;44.240;2023-11-18T14:50:19;4.03;74.35
75466;HTU21D;64049;46.290;44.240;2023-11-18T14:52:46;4.04;74.41
75466;HTU21D;64049;46.290;44.240;2023-11-18T14:55:13;4.00;74.50
75466;HTU21D;64049;46.290;44.240;2023-11-18T14:57:42;3.93;74.64
75466;HTU21D;64049;46.290;44.240;2023-11-18T15:00:11;3.84;74.84
75466;HTU21D;64049;46.290;44.240;2023-11-18T15:02:49;3.79;75.04
75466;HTU21D;64049;46.290;44.240;2023-11-18T15:05:16;3.74;75.14
75466;HTU21D;64049;46.290;44.240;2023-11-18T15:07:51;3.72;75.21
75466;HTU21D;64049;46.290;44.240;2023-11-18T15:10:20;3.73;75.21
75466;HTU21D;64049;46.290;44.240;2023-11-18T15:12:47;3.75;75.18
75466;HTU21D;64049;46.290;44.240;2023-11-18T15:15:13;3.71;75.04
75466;HTU21D;64049;46.290;44.240;2023-11-18T15:17:46;3.65;75.14
75466;HTU21D;64049;46.290;44.240;2023-11-18T15:20:17;3.63;75.25
75466;HTU21D;64049;46.290;44.240;2023-11-18T15:22:45;3.62;75.30
75466;HTU21D;64049;46.290;44.240;2023-11-18T15:25:13;3.59;75.38
75466;HTU21D;64049;46.290;44.240;2023-11-18T15:27:41;3.59;75.50
75466;HTU21D;64049;46.290;44.240;2023-11-18T15:30:08;3.58;75.49
75466;HTU21D;64049;46.290;44.240;2023-11-18T15:32:42;3.55;75.53
75466;HTU21D;64049;46.290;44.240;2023-11-18T15:35:09;3.52;75.62
75466;HTU21D;64049;46.290;44.240;2023-11-18T15:37:40;3.46;75.72
75466;HTU21D;64049;46.290;44.240;2023-11-18T15:40:12;3.41;75.84
75466;HTU21D;64049;46.290;44.240;2023-11-18T15:45:27;3.32;76.09
75466;HTU21D;64049;46.290;44.240;2023-11-18T15:47:54;3.28;76.08
75466;HTU21D;64049;46.290;44.240;2023-11-18T15:50:20;3.25;76.15
75466;HTU21D;64049;46.290;44.240;2023-11-18T15:52:47;3.24;76.19
75466;HTU21D;64049;46.290;44.240;2023-11-18T15:55:15;3.21;76.23
75466;HTU21D;64049;46.290;44.240;2023-11-18T15:57:43;3.21;76.19